Time;durP1;ratioP1;P1;durP2;ratioP2;P2;SDS_P1;SDS_P2;PMS_P1;PMS_P2;Temp;Humidity;BMP_temperature;BMP_pressure;BME280_temperature;BME280_humidity;BME280_pressure;Samples;Min_cycle;Max_cycle;Signal;HPM_P1;HPM_P2
2022/06/17 00:00:50;;;;;;;3.10;2.80;;;23.00;64.60;;;;;;5077896;28;20032;-51
2022/06/17 00:03:16;;;;;;;2.90;2.70;;;23.00;65.00;;;;;;5083561;28;20048;-50
2022/06/17 00:05:45;;;;;;;3.42;3.20;;;23.00;65.50;;;;;;5063191;28;20048;-51
2022/06/17 00:08:22;;;;;;;3.40;3.10;;;23.00;65.00;;;;;;5082094;28;20382;-52
2022/06/17 00:10:48;;;;;;;3.58;3.28;;;23.00;64.90;;;;;;5084449;28;20038;-49
2022/06/17 00:13:16;;;;;;;3.28;3.05;;;22.90;65.00;;;;;;5083670;28;20062;-51
2022/06/17 00:15:42;;;;;;;3.50;3.20;;;22.90;64.80;;;;;;5094904;28;20024;-50
2022/06/17 00:18:09;;;;;;;3.13;2.92;;;22.90;64.50;;;;;;5088607;28;20032;-49
2022/06/17 00:20:35;;;;;;;3.17;2.97;;;22.90;64.60;;;;;;5083074;28;20099;-49
2022/06/17 00:23:02;;;;;;;3.28;2.95;;;22.90;64.50;;;;;;5077511;28;20036;-53
2022/06/17 00:25:33;;;;;;;3.20;2.90;;;22.90;64.40;;;;;;5082713;28;20067;-49
2022/06/17 00:27:59;;;;;;;3.30;3.00;;;22.90;64.10;;;;;;5060306;28;20028;-53
2022/06/17 00:30:27;;;;;;;2.93;2.73;;;22.90;64.30;;;;;;5078175;28;20025;-53
2022/06/17 00:33:01;;;;;;;2.80;2.60;;;22.90;64.20;;;;;;5079787;28;20036;-48
2022/06/17 00:35:36;;;;;;;3.22;2.95;;;22.80;64.40;;;;;;5080003;28;20052;-54
2022/06/17 00:38:02;;;;;;;3.20;3.00;;;22.80;64.70;;;;;;5078863;28;20536;-55
2022/06/17 00:40:31;;;;;;;3.40;3.20;;;22.80;65.10;;;;;;5080194;28;20032;-51
2022/06/17 00:42:57;;;;;;;3.28;3.08;;;22.80;65.10;;;;;;5065573;28;20766;-54
2022/06/17 00:46:05;;;;;;;2.90;2.70;;;22.80;65.40;;;;;;5089312;28;20028;-52
2022/06/17 00:48:35;;;;;;;3.50;3.20;;;22.70;64.60;;;;;;5069942;28;20048;-59
2022/06/17 00:51:17;;;;;;;3.00;2.80;;;22.70;64.80;;;;;;5060949;28;20561;-52
2022/06/17 00:53:59;;;;;;;2.83;2.63;;;22.70;65.70;;;;;;5067772;28;20079;-58
2022/06/17 00:56:31;;;;;;;3.13;2.92;;;22.70;65.80;;;;;;5067655;28;20029;-57
2022/06/17 00:59:10;;;;;;;3.40;3.10;;;22.70;65.80;;;;;;5083596;28;20028;-56
2022/06/17 01:01:47;;;;;;;3.17;2.97;;;22.70;65.00;;;;;;5078784;28;20032;-57
2022/06/17 01:04:18;;;;;;;3.65;2.78;;;22.70;65.60;;;;;;5078484;28;20056;-56
2022/06/17 01:06:48;;;;;;;3.38;3.08;;;22.70;65.70;;;;;;5068057;28;20032;-50
2022/06/17 01:12:05;;;;;;;3.30;3.10;;;22.70;65.70;;;;;;5084374;28;20031;-55
2022/06/17 01:14:31;;;;;;;3.50;3.20;;;22.60;65.50;;;;;;5097518;28;20508;-54
2022/06/17 01:16:57;;;;;;;3.55;3.08;;;22.60;65.90;;;;;;5086300;28;20033;-56
2022/06/17 01:19:43;;;;;;;3.33;3.13;;;22.60;65.70;;;;;;5090852;28;20021;-56
2022/06/17 01:22:45;;;;;;;3.90;3.50;;;22.60;66.20;;;;;;5092643;28;20054;-52
2022/06/17 01:25:23;;;;;;;5.18;4.75;;;22.70;67.40;;;;;;5084328;28;20060;-58
2022/06/17 01:27:53;;;;;;;7.40;4.57;;;22.70;69.40;;;;;;5082700;28;20592;-57
2022/06/17 01:30:50;;;;;;;6.97;4.32;;;22.70;69.40;;;;;;5084357;28;20040;-56
2022/06/17 01:33:31;;;;;;;4.82;3.97;;;22.70;68.50;;;;;;5086152;28;20060;-52
2022/06/17 01:36:14;;;;;;;4.40;3.75;;;22.80;67.20;;;;;;5079489;28;20119;-53
2022/06/17 01:38:42;;;;;;;6.03;4.03;;;22.70;66.50;;;;;;5087093;28;20556;-51
2022/06/17 01:41:08;;;;;;;4.55;3.97;;;22.70;65.80;;;;;;5064812;28;20482;-56
2022/06/17 01:44:09;;;;;;;4.47;3.78;;;22.80;65.40;;;;;;5063802;28;20143;-54
2022/06/17 01:46:42;;;;;;;4.28;3.78;;;22.80;64.70;;;;;;5083144;28;20059;-53
2022/06/17 01:49:26;;;;;;;4.13;3.72;;;22.80;64.10;;;;;;5096221;28;20058;-55
2022/06/17 01:51:57;;;;;;;3.80;3.50;;;22.80;64.00;;;;;;5063127;28;20033;-53
2022/06/17 01:54:32;;;;;;;3.80;3.50;;;22.80;63.80;;;;;;5096638;28;20032;-50
2022/06/17 01:57:00;;;;;;;3.95;3.50;;;22.80;63.50;;;;;;5065745;28;20036;-49
2022/06/17 01:59:54;;;;;;;3.72;3.42;;;22.80;63.10;;;;;;5078330;28;20024;-48
2022/06/17 02:02:20;;;;;;;6.15;4.53;;;22.80;62.70;;;;;;5085619;28;20051;-50
2022/06/17 02:04:50;;;;;;;4.05;3.53;;;22.80;64.30;;;;;;5065534;28;20043;-54
2022/06/17 02:07:21;;;;;;;4.03;3.72;;;22.70;65.50;;;;;;5035139;28;20074;-57
2022/06/17 02:09:48;;;;;;;3.70;3.40;;;22.70;64.80;;;;;;5084412;28;20088;-56
2022/06/17 02:12:15;;;;;;;4.68;3.63;;;22.70;64.60;;;;;;5075070;28;20032;-57
2022/06/17 02:14:41;;;;;;;3.70;3.40;;;22.70;64.60;;;;;;5074574;28;20567;-57
2022/06/17 02:17:07;;;;;;;4.63;3.45;;;22.70;64.50;;;;;;5073138;28;20071;-57
2022/06/17 02:19:35;;;;;;;3.80;3.50;;;22.70;64.10;;;;;;5075119;28;20036;-58
2022/06/17 02:22:06;;;;;;;4.68;3.00;;;22.70;63.10;;;;;;5074436;28;20035;-58
2022/06/17 02:24:32;;;;;;;3.00;2.80;;;22.60;62.50;;;;;;5073576;28;20040;-57
2022/06/17 02:27:00;;;;;;;3.72;3.42;;;22.60;63.40;;;;;;5074515;28;20029;-51
2022/06/17 02:29:27;;;;;;;6.20;3.53;;;22.60;62.10;;;;;;5087701;28;20167;-57
2022/06/17 02:31:53;;;;;;;5.63;3.15;;;22.60;62.20;;;;;;5056221;28;20138;-54
2022/06/17 02:34:20;;;;;;;3.38;3.08;;;22.60;63.00;;;;;;5057199;28;20124;-58
2022/06/17 02:36:55;;;;;;;4.90;3.22;;;22.50;63.80;;;;;;5074784;28;20063;-55
2022/06/17 02:39:21;;;;;;;6.47;3.50;;;22.50;62.80;;;;;;5086267;28;20035;-58
2022/06/17 02:41:47;;;;;;;4.30;3.42;;;22.50;62.30;;;;;;5061576;28;20040;-55
2022/06/17 02:44:23;;;;;;;4.75;3.47;;;22.50;63.10;;;;;;5077778;28;20044;-56
2022/06/17 02:46:49;;;;;;;3.83;3.53;;;22.50;63.40;;;;;;5043193;28;20036;-54
2022/06/17 02:49:22;;;;;;;4.20;3.38;;;22.40;63.30;;;;;;5058091;28;20067;-51
2022/06/17 02:51:48;;;;;;;5.03;3.65;;;22.40;63.10;;;;;;5077859;28;20060;-58
2022/06/17 02:54:24;;;;;;;5.60;3.22;;;22.40;63.30;;;;;;5076064;28;20029;-59
2022/06/17 02:56:52;;;;;;;4.85;3.40;;;22.40;62.50;;;;;;5058174;28;20033;-55
2022/06/17 02:59:20;;;;;;;5.97;3.40;;;22.40;62.90;;;;;;5078766;28;20025;-54
2022/06/17 03:01:46;;;;;;;3.83;3.53;;;22.40;61.90;;;;;;5055650;28;20103;-57
2022/06/17 03:04:20;;;;;;;3.97;3.53;;;22.40;62.20;;;;;;5074464;28;20032;-62
2022/06/17 03:06:47;;;;;;;4.57;3.22;;;22.40;63.00;;;;;;5057352;28;20088;-63
2022/06/17 03:09:25;;;;;;;7.95;3.30;;;22.40;63.00;;;;;;5081390;28;20096;-59
2022/06/17 03:12:03;;;;;;;8.57;3.80;;;22.40;63.30;;;;;;5081650;28;20027;-59
2022/06/17 03:14:33;;;;;;;5.00;3.38;;;22.40;63.80;;;;;;5081576;28;20070;-59
2022/06/17 03:17:01;;;;;;;5.93;3.33;;;22.40;64.20;;;;;;5063045;28;20025;-58
2022/06/17 03:19:28;;;;;;;4.40;3.42;;;22.40;64.50;;;;;;5079730;28;20033;-59
2022/06/17 03:21:54;;;;;;;3.58;3.05;;;22.40;64.60;;;;;;5062652;28;20029;-60
2022/06/17 03:24:31;;;;;;;4.47;3.40;;;22.40;64.60;;;;;;5081160;28;20032;-60
2022/06/17 03:27:01;;;;;;;3.78;3.45;;;22.40;64.50;;;;;;5061562;28;20866;-60
2022/06/17 03:29:27;;;;;;;3.60;3.30;;;22.40;64.60;;;;;;5080604;28;20032;-59
2022/06/17 03:32:01;;;;;;;3.67;3.25;;;22.40;65.00;;;;;;5078742;28;20043;-59
2022/06/17 03:34:38;;;;;;;4.47;3.05;;;22.40;64.60;;;;;;5063963;28;20055;-54
2022/06/17 03:37:38;;;;;;;3.30;3.00;;;22.40;64.50;;;;;;5057253;28;20035;-59
2022/06/17 03:40:13;;;;;;;4.43;3.20;;;22.40;64.80;;;;;;5080508;28;20032;-60
2022/06/17 03:43:09;;;;;;;3.50;3.22;;;22.40;64.60;;;;;;5063117;28;20052;-56
2022/06/17 03:45:59;;;;;;;3.70;3.40;;;22.40;64.70;;;;;;5049459;28;20063;-60
2022/06/17 03:48:45;;;;;;;3.80;3.50;;;22.40;64.90;;;;;;5073006;28;20040;-60
2022/06/17 03:51:14;;;;;;;3.45;3.13;;;22.40;64.70;;;;;;5081365;28;20540;-58
2022/06/17 03:53:40;;;;;;;3.95;3.55;;;22.40;64.80;;;;;;5060956;28;20029;-55
2022/06/17 03:56:12;;;;;;;4.45;3.40;;;22.40;65.30;;;;;;5077966;28;20481;-53
2022/06/17 03:58:39;;;;;;;4.47;4.07;;;22.40;64.50;;;;;;5061641;28;20020;-57
2022/06/17 04:01:15;;;;;;;3.65;3.35;;;22.40;64.60;;;;;;5098339;28;20099;-54
2022/06/17 04:03:45;;;;;;;3.65;3.35;;;22.40;64.60;;;;;;5062693;28;20056;-53
2022/06/17 04:06:12;;;;;;;3.90;3.60;;;22.40;64.20;;;;;;5062577;28;20031;-59
2022/06/17 04:08:52;;;;;;;3.97;3.67;;;22.40;64.30;;;;;;5066492;28;20033;-54
2022/06/17 04:11:18;;;;;;;4.13;3.72;;;22.40;64.30;;;;;;5079486;28;20029;-54
2022/06/17 04:13:44;;;;;;;4.00;3.70;;;22.40;64.50;;;;;;5060975;28;20040;-55
2022/06/17 04:16:24;;;;;;;3.63;3.33;;;22.30;64.40;;;;;;5060860;28;20032;-51
2022/06/17 04:18:51;;;;;;;3.90;3.60;;;22.40;64.40;;;;;;5063029;28;20092;-52
2022/06/17 04:21:17;;;;;;;4.20;3.90;;;22.40;64.40;;;;;;5079935;28;20048;-52
2022/06/17 04:23:43;;;;;;;3.72;3.42;;;22.40;64.40;;;;;;5080154;28;20045;-52
2022/06/17 04:26:16;;;;;;;3.97;3.67;;;22.40;64.40;;;;;;5046327;28;20013;-49
2022/06/17 04:28:48;;;;;;;4.43;4.03;;;22.40;64.30;;;;;;5061769;28;20035;-49
2022/06/17 04:31:20;;;;;;;4.43;4.03;;;22.30;64.20;;;;;;5090787;28;20048;-49
2022/06/17 04:33:52;;;;;;;4.53;3.90;;;22.30;64.20;;;;;;5073572;28;20064;-47
2022/06/17 04:36:20;;;;;;;3.85;3.53;;;22.30;64.10;;;;;;5053643;28;20051;-47
2022/06/17 04:38:57;;;;;;;4.32;3.92;;;22.30;64.20;;;;;;5054659;28;20115;-48
2022/06/17 04:41:25;;;;;;;4.18;3.78;;;22.30;64.10;;;;;;5076849;28;20037;-48
2022/06/17 04:43:53;;;;;;;4.13;3.78;;;22.30;64.20;;;;;;5059448;28;20032;-46
2022/06/17 04:46:30;;;;;;;4.05;3.70;;;22.30;64.20;;;;;;5076340;28;20031;-47
2022/06/17 04:48:59;;;;;;;4.60;4.00;;;22.30;64.00;;;;;;5075547;28;20099;-50
2022/06/17 04:51:26;;;;;;;4.15;3.85;;;22.20;63.90;;;;;;5076295;28;20535;-50
2022/06/17 04:53:53;;;;;;;4.10;3.80;;;22.20;64.00;;;;;;5044315;28;20033;-45
2022/06/17 04:56:28;;;;;;;4.72;4.30;;;22.20;64.30;;;;;;5077551;28;20036;-47
2022/06/17 04:58:54;;;;;;;4.30;3.95;;;22.20;64.20;;;;;;5090292;28;20040;-46
2022/06/17 05:01:21;;;;;;;5.90;4.13;;;22.20;64.10;;;;;;5091325;28;20025;-51
2022/06/17 05:03:47;;;;;;;4.38;4.07;;;22.20;64.20;;;;;;5067264;28;20055;-53
2022/06/17 05:06:13;;;;;;;4.23;3.83;;;22.20;64.20;;;;;;5085284;28;20096;-51
2022/06/17 05:08:42;;;;;;;4.32;3.92;;;22.20;64.30;;;;;;5082060;28;20071;-55
2022/06/17 05:11:15;;;;;;;4.40;4.00;;;22.20;64.30;;;;;;5081841;28;20035;-50
2022/06/17 05:13:53;;;;;;;4.40;4.00;;;22.20;64.30;;;;;;5100302;28;20100;-52
2022/06/17 05:16:19;;;;;;;4.25;3.90;;;22.10;64.10;;;;;;5058610;28;20029;-53
2022/06/17 05:18:45;;;;;;;4.70;4.30;;;22.10;64.40;;;;;;5072330;28;20036;-50
2022/06/17 05:21:22;;;;;;;6.97;4.30;;;22.10;64.30;;;;;;5084054;28;20016;-51
2022/06/17 05:23:50;;;;;;;4.13;3.72;;;22.10;64.20;;;;;;5084060;28;20144;-57
2022/06/17 05:26:17;;;;;;;4.53;4.13;;;22.10;64.30;;;;;;5068994;28;20055;-57
2022/06/17 05:28:43;;;;;;;5.05;4.10;;;22.00;64.50;;;;;;5097350;28;20417;-50
2022/06/17 05:31:11;;;;;;;5.00;4.10;;;22.10;64.50;;;;;;5079176;28;20144;-55
2022/06/17 05:33:37;;;;;;;4.60;4.20;;;22.00;64.50;;;;;;5058960;28;20043;-56
2022/06/17 05:36:03;;;;;;;4.68;4.28;;;22.00;64.60;;;;;;5077465;28;20032;-57
2022/06/17 05:38:30;;;;;;;4.53;4.20;;;22.00;64.50;;;;;;5077432;28;20055;-57
2022/06/17 05:40:57;;;;;;;;;;;22.00;64.70;;;;;;5078223;28;20032;-56
2022/06/17 05:43:23;;;;;;;4.60;4.18;;;21.90;64.80;;;;;;5076099;28;19930;-56
2022/06/17 05:45:49;;;;;;;4.07;3.78;;;21.90;64.70;;;;;;5076584;28;20096;-56
2022/06/17 05:48:15;;;;;;;4.20;3.90;;;21.90;64.50;;;;;;5076478;28;20059;-56
2022/06/17 05:50:41;;;;;;;4.50;3.65;;;21.90;64.50;;;;;;5077230;28;20021;-56
2022/06/17 05:53:09;;;;;;;4.63;3.78;;;21.90;64.50;;;;;;5076748;28;20051;-56
2022/06/17 05:55:36;;;;;;;4.28;3.97;;;21.90;64.40;;;;;;5057532;28;20768;-57
2022/06/17 05:58:03;;;;;;;4.65;4.25;;;21.90;64.60;;;;;;5075766;28;20664;-56
2022/06/17 06:00:29;;;;;;;3.75;3.45;;;21.90;64.40;;;;;;5084460;28;20874;-57
2022/06/17 06:03:00;;;;;;;5.30;3.70;;;21.90;64.30;;;;;;5080958;28;20051;-56
2022/06/17 06:05:27;;;;;;;4.43;4.00;;;21.80;64.10;;;;;;5084989;28;20025;-54
2022/06/17 06:07:53;;;;;;;4.40;4.10;;;21.80;64.10;;;;;;5086418;28;20077;-52
2022/06/17 06:10:20;;;;;;;4.38;4.05;;;21.80;64.30;;;;;;5085283;28;20039;-55
2022/06/17 06:13:00;;;;;;;5.70;4.20;;;21.80;64.20;;;;;;5089522;28;20032;-54
2022/06/17 06:15:47;;;;;;;4.10;3.80;;;21.80;64.40;;;;;;5082236;28;20036;-55
2022/06/17 06:18:15;;;;;;;4.38;3.97;;;21.80;64.40;;;;;;5082546;28;20063;-54
2022/06/17 06:20:41;;;;;;;4.70;4.10;;;21.80;64.40;;;;;;5091286;28;20031;-56
2022/06/17 06:23:08;;;;;;;5.90;3.97;;;21.70;64.30;;;;;;5080359;28;20036;-53
2022/06/17 06:25:34;;;;;;;4.15;3.85;;;21.70;64.40;;;;;;5086710;28;20029;-50
2022/06/17 06:28:16;;;;;;;3.90;3.60;;;21.70;63.90;;;;;;5081979;28;20033;-50
2022/06/17 06:30:43;;;;;;;4.38;3.90;;;21.70;63.70;;;;;;5053387;28;20041;-52
2022/06/17 06:33:09;;;;;;;3.95;3.65;;;21.70;63.80;;;;;;5090603;28;20028;-50
2022/06/17 06:35:36;;;;;;;6.40;3.78;;;21.70;63.80;;;;;;5075504;28;20036;-53
2022/06/17 06:38:02;;;;;;;;;;;21.70;63.80;;;;;;5075497;28;20033;-54
2022/06/17 06:40:29;;;;;;;4.07;3.78;;;21.60;64.20;;;;;;5058137;28;19943;-51
2022/06/17 06:42:55;;;;;;;4.13;3.63;;;21.60;63.90;;;;;;5075786;28;20036;-55
2022/06/17 06:45:27;;;;;;;3.75;3.45;;;21.50;63.80;;;;;;5076144;28;20606;-54
2022/06/17 06:47:53;;;;;;;3.67;3.38;;;21.60;63.90;;;;;;5075534;28;20033;-55
2022/06/17 06:50:23;;;;;;;3.72;3.42;;;21.50;64.10;;;;;;5076454;28;20040;-55
2022/06/17 06:52:49;;;;;;;3.80;3.50;;;21.60;64.00;;;;;;5076025;28;20135;-52
2022/06/17 06:55:15;;;;;;;4.25;3.70;;;21.60;64.00;;;;;;5075321;28;20059;-54
2022/06/17 06:57:47;;;;;;;4.00;3.60;;;21.50;64.00;;;;;;5076314;28;20048;-55
2022/06/17 07:00:18;;;;;;;3.70;3.30;;;21.50;63.80;;;;;;5083173;28;20031;-53
2022/06/17 07:02:44;;;;;;;3.90;3.60;;;21.50;63.50;;;;;;5072897;28;20037;-53
2022/06/17 07:05:10;;;;;;;3.58;3.28;;;21.50;63.50;;;;;;5081064;28;20458;-56
2022/06/17 07:07:37;;;;;;;3.60;3.30;;;21.50;63.40;;;;;;5082796;28;20032;-52
2022/06/17 07:10:04;;;;;;;3.75;3.45;;;21.50;63.40;;;;;;5081464;28;20075;-55
2022/06/17 07:12:30;;;;;;;3.88;3.45;;;21.50;63.40;;;;;;5082994;28;20029;-53
2022/06/17 07:14:56;;;;;;;4.13;3.72;;;21.40;63.40;;;;;;5082761;28;20135;-55
2022/06/17 07:17:22;;;;;;;3.60;3.30;;;21.40;63.40;;;;;;5100578;28;20049;-52
2022/06/17 07:19:48;;;;;;;3.88;3.58;;;21.40;63.00;;;;;;5083640;28;20413;-50
2022/06/17 07:22:14;;;;;;;4.53;3.33;;;21.40;63.40;;;;;;5081322;28;20035;-53
2022/06/17 07:24:40;;;;;;;3.97;3.55;;;21.40;63.30;;;;;;5082141;28;20050;-50
2022/06/17 07:27:06;;;;;;;4.00;3.60;;;21.40;63.30;;;;;;5084269;28;20028;-49
2022/06/17 07:29:33;;;;;;;2.88;2.67;;;21.30;63.30;;;;;;5085088;28;20028;-52
2022/06/17 07:32:00;;;;;;;3.35;3.15;;;21.30;63.40;;;;;;5081980;28;20033;-48
2022/06/17 07:34:27;;;;;;;3.28;3.05;;;21.30;63.30;;;;;;5082656;28;20043;-52
2022/06/17 07:39:57;;;;;;;3.80;3.50;;;21.20;63.20;;;;;;5080375;28;20039;-60
2022/06/17 07:42:27;;;;;;;3.70;3.40;;;21.20;63.40;;;;;;5075740;28;20561;-62
2022/06/17 07:44:53;;;;;;;3.80;3.50;;;21.20;63.60;;;;;;5082462;28;20048;-60
2022/06/17 07:47:20;;;;;;;3.70;3.40;;;21.20;63.90;;;;;;5081958;28;20067;-66
2022/06/17 07:49:47;;;;;;;3.60;3.30;;;21.20;63.80;;;;;;5083198;28;20099;-65
2022/06/17 07:52:13;;;;;;;3.85;3.42;;;21.20;64.00;;;;;;5077241;28;20707;-65
2022/06/17 07:54:39;;;;;;;3.60;3.30;;;21.20;64.10;;;;;;5084703;28;20033;-65
2022/06/17 07:57:06;;;;;;;4.13;3.70;;;21.10;64.60;;;;;;5078710;28;20036;-64
2022/06/17 07:59:32;;;;;;;4.63;4.10;;;21.10;65.30;;;;;;5078833;28;20020;-65
2022/06/17 08:01:58;;;;;;;4.07;3.67;;;21.10;65.70;;;;;;5081238;28;20064;-65
2022/06/17 08:04:24;;;;;;;5.35;3.65;;;21.10;66.10;;;;;;5082186;28;20116;-59
2022/06/17 08:06:50;;;;;;;4.50;3.65;;;21.10;66.10;;;;;;5065803;28;20039;-61
2022/06/17 08:09:20;;;;;;;6.82;3.78;;;21.10;66.30;;;;;;5082389;28;20385;-60
2022/06/17 08:11:47;;;;;;;4.93;3.63;;;21.10;66.30;;;;;;5086942;28;20024;-61
2022/06/17 08:14:14;;;;;;;4.00;3.60;;;21.10;66.40;;;;;;5085132;28;20120;-64
2022/06/17 08:16:40;;;;;;;7.33;3.63;;;21.00;66.40;;;;;;5083899;28;20898;-65
2022/06/17 08:19:07;;;;;;;5.97;3.75;;;21.10;66.00;;;;;;5082532;28;20029;-64
2022/06/17 08:21:34;;;;;;;4.43;3.53;;;21.00;65.70;;;;;;5102730;28;20031;-60
2022/06/17 08:24:00;;;;;;;3.80;3.50;;;21.00;66.00;;;;;;5083582;28;20806;-62
2022/06/17 08:26:26;;;;;;;3.38;3.08;;;21.00;66.00;;;;;;5082693;28;20062;-51
2022/06/17 08:28:53;;;;;;;6.05;3.72;;;21.00;66.10;;;;;;5081523;28;20028;-55
2022/06/17 08:31:19;;;;;;;5.68;3.47;;;20.90;64.80;;;;;;5081898;28;20032;-59
2022/06/17 08:33:46;;;;;;;5.22;3.67;;;20.80;65.80;;;;;;5067566;28;20039;-59
2022/06/17 08:36:17;;;;;;;3.72;3.40;;;20.80;64.80;;;;;;5081839;28;20033;-59
2022/06/17 08:38:51;;;;;;;4.43;3.28;;;20.70;64.20;;;;;;5096869;28;20041;-60
2022/06/17 08:41:22;;;;;;;3.90;3.60;;;20.70;63.20;;;;;;5082100;28;20025;-60
2022/06/17 08:43:58;;;;;;;3.35;3.05;;;20.70;62.70;;;;;;5097186;28;20047;-59
2022/06/17 08:47:01;;;;;;;3.33;3.00;;;20.70;62.90;;;;;;5081980;28;20024;-59
2022/06/17 08:49:37;;;;;;;3.60;3.30;;;20.60;62.50;;;;;;5029575;28;20045;-58
2022/06/17 08:52:38;;;;;;;3.90;2.92;;;20.60;62.20;;;;;;5006290;28;20132;-60
2022/06/17 08:55:33;;;;;;;3.40;3.10;;;20.60;62.30;;;;;;5012928;28;20038;-60
2022/06/17 08:58:02;;;;;;;3.95;3.55;;;20.60;62.20;;;;;;4996976;28;20054;-60
2022/06/17 09:00:51;;;;;;;3.60;3.20;;;20.60;62.30;;;;;;5018382;28;20029;-60
2022/06/17 09:03:35;;;;;;;3.30;3.00;;;20.60;62.00;;;;;;5019606;28;20045;-59
2022/06/17 09:06:12;;;;;;;3.40;3.10;;;20.50;62.20;;;;;;5019159;28;20034;-60
2022/06/17 09:08:53;;;;;;;4.88;3.25;;;20.50;62.00;;;;;;5019030;28;20038;-60
2022/06/17 09:11:20;;;;;;;3.35;2.90;;;20.50;62.10;;;;;;5004937;28;20102;-59
2022/06/17 09:13:58;;;;;;;3.47;3.15;;;20.50;62.00;;;;;;5002486;28;20042;-60
2022/06/17 09:16:24;;;;;;;;;;;20.40;62.00;;;;;;4999717;28;20046;-58
2022/06/17 09:18:55;;;;;;;3.60;3.30;;;20.40;62.00;;;;;;5019387;28;19916;-60
2022/06/17 09:21:35;;;;;;;3.55;3.25;;;20.40;61.70;;;;;;5018994;28;20108;-58
2022/06/17 09:24:14;;;;;;;3.03;2.80;;;20.40;61.70;;;;;;5007502;28;20042;-59
2022/06/17 09:26:55;;;;;;;3.20;2.90;;;20.30;61.60;;;;;;5060897;28;20025;-59
2022/06/17 09:29:25;;;;;;;3.47;3.17;;;20.30;61.60;;;;;;5057643;28;20040;-58
2022/06/17 09:31:57;;;;;;;2.90;2.53;;;20.30;61.50;;;;;;5067364;28;20025;-59
2022/06/17 09:34:48;;;;;;;3.22;2.92;;;20.30;61.60;;;;;;5070059;28;20231;-59
2022/06/17 09:37:24;;;;;;;3.03;2.72;;;20.30;61.60;;;;;;5085385;28;20085;-59
2022/06/17 09:40:24;;;;;;;3.45;3.15;;;20.20;61.40;;;;;;5085780;28;20051;-60
2022/06/17 09:43:10;;;;;;;3.10;2.88;;;20.30;61.90;;;;;;5067020;28;20063;-57
2022/06/17 09:46:02;;;;;;;3.35;3.05;;;20.20;61.60;;;;;;5065932;28;20025;-60
2022/06/17 09:48:49;;;;;;;3.22;2.92;;;20.20;61.90;;;;;;5084916;28;20082;-58
2022/06/17 09:51:16;;;;;;;3.30;3.00;;;20.20;62.00;;;;;;5068885;28;20071;-59
2022/06/17 09:53:50;;;;;;;3.33;2.80;;;20.10;61.50;;;;;;5084616;28;20056;-59
2022/06/17 09:56:53;;;;;;;3.00;2.80;;;20.10;61.40;;;;;;5083906;28;20032;-58
2022/06/17 09:59:23;;;;;;;3.38;3.08;;;20.10;61.50;;;;;;5021453;28;20030;-60
2022/06/17 10:01:49;;;;;;;3.20;2.85;;;20.10;61.40;;;;;;5018965;28;20034;-59
2022/06/17 10:04:16;;;;;;;3.20;3.00;;;20.00;61.80;;;;;;5004009;28;20078;-59
2022/06/17 10:07:16;;;;;;;3.95;2.92;;;20.00;61.50;;;;;;4986313;28;20097;-59
2022/06/17 10:10:14;;;;;;;3.13;2.83;;;20.00;61.40;;;;;;4943730;29;20123;-59
2022/06/17 10:13:06;;;;;;;3.40;3.03;;;20.00;61.50;;;;;;4925233;29;20033;-58
2022/06/17 10:18:31;;;;;;;3.00;2.80;;;19.90;61.70;;;;;;4944321;29;20118;-59
2022/06/17 10:18:57;;;;;;;3.30;3.00;;;20.00;61.90;;;;;;4933741;29;20119;-59
2022/06/17 10:21:47;;;;;;;4.68;3.20;;;19.90;61.70;;;;;;4943828;29;20039;-59
2022/06/17 10:24:44;;;;;;;3.22;2.92;;;19.90;61.60;;;;;;4928029;29;20048;-59
2022/06/17 10:27:19;;;;;;;3.00;2.80;;;19.90;61.70;;;;;;4943834;29;20039;-56
2022/06/17 10:29:51;;;;;;;3.28;2.97;;;19.90;61.40;;;;;;4943762;29;20034;-57
2022/06/17 10:32:17;;;;;;;3.08;2.83;;;19.80;61.60;;;;;;4946979;28;20130;-59
2022/06/17 10:34:54;;;;;;;2.90;2.70;;;19.80;61.30;;;;;;4998784;28;20034;-60
2022/06/17 10:37:20;;;;;;;2.97;2.77;;;19.80;61.60;;;;;;4985486;28;20030;-62
2022/06/17 10:39:46;;;;;;;3.22;2.92;;;19.80;61.40;;;;;;5001885;28;20311;-60
2022/06/17 10:42:17;;;;;;;3.08;2.83;;;19.80;61.40;;;;;;5001824;28;20030;-60
2022/06/17 10:44:50;;;;;;;2.95;2.75;;;19.80;61.40;;;;;;4995720;28;20045;-57
2022/06/17 10:47:29;;;;;;;3.20;2.90;;;19.80;61.40;;;;;;5054274;28;20021;-60
2022/06/17 10:49:59;;;;;;;3.13;2.70;;;19.80;61.50;;;;;;5061329;28;20029;-59
2022/06/17 10:52:37;;;;;;;3.00;2.70;;;19.70;62.40;;;;;;5063541;28;20021;-60
2022/06/17 10:55:03;;;;;;;;;;;19.70;61.70;;;;;;5055588;28;20112;-60
2022/06/17 10:57:32;;;;;;;3.00;2.80;;;19.70;61.90;;;;;;5082631;28;19904;-60
2022/06/17 10:59:58;;;;;;;2.83;2.63;;;19.70;61.90;;;;;;5065554;28;20037;-59
2022/06/17 11:02:32;;;;;;;3.30;3.00;;;19.60;61.30;;;;;;5070143;28;20048;-60
2022/06/17 11:05:05;;;;;;;3.10;2.80;;;19.60;61.70;;;;;;5084374;28;20044;-59
2022/06/17 11:07:33;;;;;;;3.13;2.90;;;19.60;61.70;;;;;;5083038;28;20031;-60
2022/06/17 11:10:13;;;;;;;2.97;2.67;;;19.60;61.60;;;;;;5080781;28;20060;-60
2022/06/17 11:12:41;;;;;;;3.47;3.00;;;19.60;61.60;;;;;;5078658;28;20029;-60
2022/06/17 11:15:32;;;;;;;3.03;2.83;;;19.50;61.70;;;;;;5096269;28;20032;-60
2022/06/17 11:18:05;;;;;;;3.45;3.15;;;19.50;61.40;;;;;;5075269;28;20067;-60
2022/06/17 11:20:32;;;;;;;2.88;2.63;;;19.50;61.40;;;;;;5082193;28;20032;-61
2022/06/17 11:23:17;;;;;;;;;;;19.50;61.30;;;;;;5083393;28;20105;-62
2022/06/17 11:25:43;;;;;;;3.15;2.85;;;19.50;61.60;;;;;;5087171;28;19980;-61
2022/06/17 11:28:33;;;;;;;3.40;2.70;;;19.50;62.00;;;;;;5103135;28;20678;-61
2022/06/17 11:31:07;;;;;;;2.83;2.63;;;19.50;62.20;;;;;;5075112;28;20048;-61
2022/06/17 11:33:54;;;;;;;3.20;2.90;;;19.40;62.20;;;;;;5082705;28;20075;-61
2022/06/17 11:36:36;;;;;;;2.97;2.78;;;19.40;62.30;;;;;;5062956;28;20035;-61
2022/06/17 11:39:25;;;;;;;2.92;2.67;;;19.40;61.90;;;;;;5086021;28;20036;-61
2022/06/17 11:41:51;;;;;;;3.15;2.85;;;19.40;61.90;;;;;;5086871;28;20024;-59
2022/06/17 11:44:19;;;;;;;3.42;3.13;;;19.30;62.20;;;;;;5082780;28;20050;-60
2022/06/17 11:46:59;;;;;;;3.80;2.97;;;19.30;61.80;;;;;;5082330;28;20025;-59
2022/06/17 11:49:25;;;;;;;3.17;2.88;;;19.30;62.10;;;;;;5060411;28;20821;-60
2022/06/17 11:51:55;;;;;;;3.00;2.80;;;19.30;61.90;;;;;;5082414;28;20024;-60
2022/06/17 11:54:29;;;;;;;2.80;2.60;;;19.30;61.80;;;;;;5055358;28;20059;-59
2022/06/17 11:56:55;;;;;;;4.00;2.92;;;19.30;62.00;;;;;;5081754;28;20060;-59
2022/06/17 11:59:30;;;;;;;3.40;3.10;;;19.30;62.60;;;;;;5080653;28;20500;-60
2022/06/17 12:01:56;;;;;;;3.25;2.95;;;19.30;62.50;;;;;;5080839;28;20055;-61
2022/06/17 12:04:46;;;;;;;3.40;3.10;;;19.20;62.70;;;;;;5082314;28;20044;-61
2022/06/17 12:08:10;;;;;;;3.13;2.90;;;19.20;62.40;;;;;;5077839;28;20063;-60
2022/06/17 12:10:41;;;;;;;3.40;3.10;;;19.20;62.70;;;;;;5041774;28;20139;-60
2022/06/17 12:13:23;;;;;;;3.38;3.10;;;19.20;63.00;;;;;;5038099;28;20025;-60
2022/06/17 12:16:16;;;;;;;3.15;2.85;;;19.20;63.00;;;;;;5034601;28;20525;-61
2022/06/17 12:18:45;;;;;;;3.58;3.22;;;19.20;63.10;;;;;;5031563;28;20045;-62
2022/06/17 12:21:42;;;;;;;4.72;3.20;;;19.20;63.10;;;;;;5031653;28;20064;-57
2022/06/17 12:24:23;;;;;;;4.38;3.00;;;19.20;62.80;;;;;;5038962;28;20041;-44
2022/06/17 12:27:01;;;;;;;3.33;3.03;;;19.20;62.20;;;;;;5023900;28;20049;-62
2022/06/17 12:29:48;;;;;;;5.03;3.42;;;19.30;61.60;;;;;;5035609;28;20029;-67
2022/06/17 12:32:43;;;;;;;3.30;3.00;;;19.30;61.60;;;;;;5026875;28;20032;-66
2022/06/17 12:35:30;;;;;;;3.25;2.97;;;19.30;61.30;;;;;;5027729;28;20132;-66
2022/06/17 12:38:36;;;;;;;3.58;3.28;;;19.20;60.90;;;;;;5027101;28;20601;-67
2022/06/17 12:41:22;;;;;;;3.35;3.08;;;19.20;61.20;;;;;;5036368;28;20092;-67
2022/06/17 12:44:06;;;;;;;4.88;3.13;;;19.20;61.60;;;;;;5036127;28;20084;-57
2022/06/17 12:46:57;;;;;;;3.50;3.20;;;19.20;62.20;;;;;;5051952;28;20032;-58
2022/06/17 12:55:23;;;;;;;3.50;3.20;;;19.10;62.10;;;;;;5081359;28;20117;-58
2022/06/17 12:58:00;;;;;;;4.43;3.42;;;19.10;63.10;;;;;;5078234;28;20032;-61
2022/06/17 13:00:36;;;;;;;3.42;3.17;;;19.10;63.00;;;;;;5084363;28;20032;-65
2022/06/17 13:03:21;;;;;;;37.90;10.35;;;19.10;63.40;;;;;;5080434;28;20501;-64
2022/06/17 13:05:47;;;;;;;72.50;16.25;;;19.10;63.80;;;;;;5086372;28;20032;-61
2022/06/17 13:08:41;;;;;;;52.25;12.48;;;19.10;63.90;;;;;;5093032;28;20078;-61
2022/06/17 13:11:34;;;;;;;31.92;9.10;;;19.10;63.80;;;;;;5065591;28;20043;-60
2022/06/17 13:14:38;;;;;;;32.20;8.93;;;19.00;63.80;;;;;;5076385;28;20020;-64
2022/06/17 13:17:32;;;;;;;24.48;8.23;;;19.00;64.20;;;;;;5096590;28;20119;-63
2022/06/17 13:20:13;;;;;;;20.27;9.00;;;19.00;65.30;;;;;;5064750;28;20036;-63
2022/06/17 13:23:12;;;;;;;18.50;7.43;;;19.00;71.90;;;;;;5079892;28;20071;-63
2022/06/17 13:26:03;;;;;;;14.40;6.80;;;19.00;70.40;;;;;;5026711;28;20372;-64
2022/06/17 13:28:54;;;;;;;9.77;5.32;;;19.00;69.60;;;;;;5027033;28;20266;-63
2022/06/17 13:31:28;;;;;;;9.40;5.40;;;19.00;67.80;;;;;;5027923;28;20141;-62
2022/06/17 13:33:58;;;;;;;9.77;5.05;;;19.00;67.00;;;;;;5015805;28;20038;-63